Time;durP1;ratioP1;P1;durP2;ratioP2;P2;SDS_P1;SDS_P2;PMS_P1;PMS_P2;Temp;Humidity;BMP_temperature;BMP_pressure;BME280_temperature;BME280_humidity;BME280_pressure;Samples;Min_cycle;Max_cycle;Signal;HPM_P1;HPM_P2
2021/09/07 00:00:15;;;;;;;7.22;6.22;;;;;;;;;;5073708;28;20197;-81
2021/09/07 00:02:43;;;;;;;9.25;7.05;;;;;;;;;;5073850;28;20182;-81
2021/09/07 00:05:12;;;;;;;7.20;6.50;;;;;;;;;;5073754;28;20720;-81
2021/09/07 00:07:40;;;;;;;8.80;6.65;;;;;;;;;;5073495;28;20225;-81
2021/09/07 00:10:11;;;;;;;7.28;6.30;;;;;;;;;;5073712;28;20178;-81
2021/09/07 00:12:39;;;;;;;7.18;6.47;;;;;;;;;;5073416;28;20232;-81
2021/09/07 00:15:09;;;;;;;7.03;6.43;;;;;;;;;;5073475;28;20224;-81
2021/09/07 00:17:39;;;;;;;7.38;6.65;;;;;;;;;;5073112;28;20221;-81
2021/09/07 00:20:08;;;;;;;7.10;5.97;;;;;;;;;;5073361;28;20201;-81
2021/09/07 00:22:35;;;;;;;8.68;6.63;;;;;;;;;;5073386;28;20185;-81
2021/09/07 00:25:04;;;;;;;7.68;6.88;;;;;;;;;;5073156;28;20197;-81
2021/09/07 00:27:31;;;;;;;6.72;5.80;;;;;;;;;;5073123;28;20224;-81
2021/09/07 00:29:59;;;;;;;6.53;5.93;;;;;;;;;;5072903;28;20652;-81
2021/09/07 00:32:26;;;;;;;7.43;6.28;;;;;;;;;;5073047;28;20186;-81
2021/09/07 00:34:55;;;;;;;7.35;6.20;;;;;;;;;;5072482;28;20207;-81
2021/09/07 00:37:23;;;;;;;6.53;5.93;;;;;;;;;;5072911;28;20233;-81
2021/09/07 00:39:50;;;;;;;5.70;5.18;;;;;;;;;;5073050;28;20208;-82
2021/09/07 00:42:18;;;;;;;7.28;6.38;;;;;;;;;;5072727;28;20207;-81
2021/09/07 00:44:45;;;;;;;6.22;5.63;;;;;;;;;;5072765;28;20199;-81
2021/09/07 00:47:13;;;;;;;6.35;5.75;;;;;;;;;;5072717;28;20585;-81
2021/09/07 00:49:40;;;;;;;6.63;5.88;;;;;;;;;;5072587;28;20207;-81
2021/09/07 00:52:10;;;;;;;7.30;6.32;;;;;;;;;;5072902;28;20556;-81
2021/09/07 00:54:39;;;;;;;7.30;6.50;;;;;;;;;;5072446;28;20628;-82
2021/09/07 00:57:09;;;;;;;7.20;6.47;;;;;;;;;;5072503;28;20229;-82
2021/09/07 00:59:37;;;;;;;6.65;6.00;;;;;;;;;;5072632;28;20220;-82
2021/09/07 01:02:06;;;;;;;8.25;7.20;;;;;;;;;;5072340;28;20643;-81
2021/09/07 01:04:34;;;;;;;6.60;5.88;;;;;;;;;;5072541;28;20181;-81
2021/09/07 01:07:03;;;;;;;7.32;6.57;;;;;;;;;;5072098;28;20220;-82
2021/09/07 01:09:32;;;;;;;6.38;5.63;;;;;;;;;;5072634;28;20196;-82
2021/09/07 01:12:00;;;;;;;7.00;5.95;;;;;;;;;;5072701;28;20185;-82
2021/09/07 01:14:32;;;;;;;5.50;5.00;;;;;;;;;;5071984;28;20232;-82
2021/09/07 01:17:00;;;;;;;7.65;5.22;;;;;;;;;;5072227;28;20225;-82
2021/09/07 01:19:28;;;;;;;5.55;4.95;;;;;;;;;;5072327;28;20185;-82
2021/09/07 01:21:55;;;;;;;6.80;6.10;;;;;;;;;;5072511;28;20188;-82
2021/09/07 01:24:25;;;;;;;7.28;6.50;;;;;;;;;;5072020;28;20823;-82
2021/09/07 01:26:53;;;;;;;7.93;6.05;;;;;;;;;;5072246;28;20224;-81
2021/09/07 01:29:20;;;;;;;8.40;6.78;;;;;;;;;;5071888;28;20201;-81
2021/09/07 01:31:48;;;;;;;5.90;4.88;;;;;;;;;;5072025;28;20189;-82
2021/09/07 01:34:21;;;;;;;5.63;5.13;;;;;;;;;;5071971;28;20201;-82
2021/09/07 01:36:49;;;;;;;5.88;5.13;;;;;;;;;;5072008;28;20221;-81
2021/09/07 01:39:18;;;;;;;6.97;6.28;;;;;;;;;;5071972;28;20185;-82
2021/09/07 01:41:47;;;;;;;7.63;4.90;;;;;;;;;;5072174;28;20185;-81
2021/09/07 01:44:15;;;;;;;9.63;5.43;;;;;;;;;;5071909;28;20195;-82
2021/09/07 01:46:42;;;;;;;4.68;4.28;;;;;;;;;;5073315;28;20231;-82
2021/09/07 01:49:10;;;;;;;5.80;5.28;;;;;;;;;;5075885;28;20174;-82
2021/09/07 01:51:38;;;;;;;6.63;5.50;;;;;;;;;;5076270;28;20639;-82
2021/09/07 01:54:06;;;;;;;5.28;4.80;;;;;;;;;;5076128;28;20173;-81
2021/09/07 01:56:34;;;;;;;5.18;4.68;;;;;;;;;;5079688;28;20231;-81
2021/09/07 01:59:02;;;;;;;5.22;4.72;;;;;;;;;;5096375;28;20185;-82
2021/09/07 02:01:30;;;;;;;5.40;4.50;;;;;;;;;;5095920;28;20662;-81
2021/09/07 02:03:58;;;;;;;8.05;5.47;;;;;;;;;;5095918;28;20196;-82
2021/09/07 02:06:26;;;;;;;4.78;4.35;;;;;;;;;;5095212;28;20220;-82
2021/09/07 02:08:53;;;;;;;5.28;4.78;;;;;;;;;;5094992;28;20672;-81
2021/09/07 02:11:21;;;;;;;6.32;4.90;;;;;;;;;;5094344;28;20211;-82
2021/09/07 02:13:48;;;;;;;4.95;4.45;;;;;;;;;;5095504;28;20736;-81
2021/09/07 02:16:17;;;;;;;4.65;4.25;;;;;;;;;;5095909;28;20224;-80
2021/09/07 02:18:44;;;;;;;5.88;5.38;;;;;;;;;;5095753;28;20649;-82
2021/09/07 02:21:12;;;;;;;5.60;5.03;;;;;;;;;;5095988;28;20200;-81
2021/09/07 02:23:39;;;;;;;5.15;4.65;;;;;;;;;;5095703;28;20191;-81
2021/09/07 02:26:07;;;;;;;6.30;4.90;;;;;;;;;;5095334;28;20226;-81
2021/09/07 02:28:34;;;;;;;5.82;4.50;;;;;;;;;;5096013;28;20184;-81
2021/09/07 02:31:01;;;;;;;4.90;4.40;;;;;;;;;;5095720;28;20187;-81
2021/09/07 02:33:30;;;;;;;4.88;4.22;;;;;;;;;;5087157;28;20655;-81
2021/09/07 02:35:58;;;;;;;5.32;4.82;;;;;;;;;;5075303;28;20229;-82
2021/09/07 02:38:25;;;;;;;4.35;3.95;;;;;;;;;;5075350;28;20220;-81
2021/09/07 02:40:57;;;;;;;4.05;3.67;;;;;;;;;;5075355;28;20197;-81
2021/09/07 02:43:25;;;;;;;3.92;3.50;;;;;;;;;;5075405;28;20196;-81
2021/09/07 02:45:52;;;;;;;4.78;4.32;;;;;;;;;;5074832;28;20247;-81
2021/09/07 02:48:20;;;;;;;5.03;4.53;;;;;;;;;;5075058;28;20181;-81
2021/09/07 02:50:50;;;;;;;5.38;4.22;;;;;;;;;;5074822;28;20209;-82
2021/09/07 02:53:17;;;;;;;4.20;3.88;;;;;;;;;;5075012;28;20189;-81
2021/09/07 02:55:45;;;;;;;5.00;4.43;;;;;;;;;;5081506;28;20238;-82
2021/09/07 02:58:12;;;;;;;5.63;5.00;;;;;;;;;;5092138;28;20211;-81
2021/09/07 03:00:44;;;;;;;5.07;4.57;;;;;;;;;;5093435;28;20192;-81
2021/09/07 03:03:11;;;;;;;5.82;5.32;;;;;;;;;;5102173;28;20654;-81
2021/09/07 03:05:40;;;;;;;5.28;4.45;;;;;;;;;;5082732;28;20193;-81
2021/09/07 03:08:09;;;;;;;5.30;4.80;;;;;;;;;;5083800;28;20260;-81
2021/09/07 03:10:36;;;;;;;5.18;4.40;;;;;;;;;;5096515;28;20253;-81
2021/09/07 03:13:04;;;;;;;4.75;4.28;;;;;;;;;;5085814;28;20225;-81
2021/09/07 03:15:32;;;;;;;4.47;4.07;;;;;;;;;;5079026;28;20204;-81
2021/09/07 03:18:00;;;;;;;4.32;3.90;;;;;;;;;;5103049;28;20268;-80
2021/09/07 03:20:27;;;;;;;3.60;3.30;;;;;;;;;;5081611;28;20284;-81
2021/09/07 03:22:55;;;;;;;3.28;2.97;;;;;;;;;;5116579;28;20575;-82
2021/09/07 03:25:24;;;;;;;3.55;3.15;;;;;;;;;;5116832;28;20195;-83
2021/09/07 03:27:52;;;;;;;3.45;3.15;;;;;;;;;;5116752;28;20240;-83
2021/09/07 03:30:20;;;;;;;3.67;3.22;;;;;;;;;;5095364;28;20256;-84
2021/09/07 03:32:47;;;;;;;4.32;3.33;;;;;;;;;;5075449;28;20204;-83
2021/09/07 03:35:15;;;;;;;4.07;3.50;;;;;;;;;;5091910;28;20189;-83
2021/09/07 03:37:43;;;;;;;3.70;3.08;;;;;;;;;;5094847;28;20220;-81
2021/09/07 03:40:12;;;;;;;3.45;3.00;;;;;;;;;;5075629;28;20197;-81
2021/09/07 03:42:43;;;;;;;4.45;3.35;;;;;;;;;;5111516;28;20685;-81
2021/09/07 03:45:15;;;;;;;4.00;3.55;;;;;;;;;;5098215;28;20653;-81
2021/09/07 03:47:43;;;;;;;3.65;3.35;;;;;;;;;;5091477;28;20208;-81
2021/09/07 03:50:12;;;;;;;3.35;3.05;;;;;;;;;;5076415;28;20209;-81
2021/09/07 03:52:40;;;;;;;4.97;3.28;;;;;;;;;;5097531;28;20203;-81
2021/09/07 03:55:10;;;;;;;3.80;3.47;;;;;;;;;;5096505;28;20235;-81
2021/09/07 03:57:38;;;;;;;4.80;3.38;;;;;;;;;;5096862;28;20224;-81
2021/09/07 04:00:09;;;;;;;3.30;3.00;;;;;;;;;;5092071;28;20208;-82
2021/09/07 04:02:36;;;;;;;3.72;3.42;;;;;;;;;;5106493;28;20260;-81
2021/09/07 04:05:05;;;;;;;3.90;3.50;;;;;;;;;;5116251;28;20223;-82
2021/09/07 04:07:33;;;;;;;4.20;3.00;;;;;;;;;;5109836;28;20636;-82
2021/09/07 04:10:00;;;;;;;3.33;3.03;;;;;;;;;;5086098;28;20197;-81
2021/09/07 04:12:28;;;;;;;3.25;2.97;;;;;;;;;;5088469;28;20224;-81
2021/09/07 04:14:56;;;;;;;4.22;3.30;;;;;;;;;;5081808;28;20224;-82
2021/09/07 04:17:26;;;;;;;4.68;3.63;;;;;;;;;;5074686;28;20221;-82
2021/09/07 04:19:53;;;;;;;3.53;3.03;;;;;;;;;;5075317;28;20200;-81
2021/09/07 04:22:21;;;;;;;4.68;3.90;;;;;;;;;;5093400;28;20284;-81
2021/09/07 04:24:48;;;;;;;3.15;2.85;;;;;;;;;;5106360;28;20255;-81
2021/09/07 04:27:16;;;;;;;3.33;3.03;;;;;;;;;;5078645;28;20224;-82
2021/09/07 04:29:44;;;;;;;3.22;2.83;;;;;;;;;;5082044;28;20630;-82
2021/09/07 04:32:11;;;;;;;4.85;2.78;;;;;;;;;;5075877;28;20287;-81
2021/09/07 04:34:41;;;;;;;3.33;3.03;;;;;;;;;;5076746;28;20203;-81
2021/09/07 04:37:09;;;;;;;3.28;2.97;;;;;;;;;;5095886;28;20251;-82
2021/09/07 04:39:37;;;;;;;2.97;2.78;;;;;;;;;;5095241;28;20220;-81
2021/09/07 04:42:05;;;;;;;3.33;3.03;;;;;;;;;;5095733;28;20264;-82
2021/09/07 04:44:32;;;;;;;2.65;2.45;;;;;;;;;;5095916;28;20222;-81
2021/09/07 04:47:00;;;;;;;3.35;3.05;;;;;;;;;;5114180;28;20219;-82
2021/09/07 04:49:28;;;;;;;2.42;2.22;;;;;;;;;;5111500;28;20645;-82
2021/09/07 04:51:57;;;;;;;3.08;2.88;;;;;;;;;;5095552;28;20188;-82
2021/09/07 04:54:25;;;;;;;2.95;2.75;;;;;;;;;;5095368;28;20203;-81
2021/09/07 04:56:52;;;;;;;2.10;1.90;;;;;;;;;;5112341;28;20717;-82
2021/09/07 04:59:20;;;;;;;4.03;2.70;;;;;;;;;;5115391;27;20203;-81
2021/09/07 05:01:48;;;;;;;3.05;2.40;;;;;;;;;;5114119;28;20176;-82
2021/09/07 05:04:15;;;;;;;3.70;3.38;;;;;;;;;;5114211;28;20632;-81
2021/09/07 05:06:43;;;;;;;3.85;3.55;;;;;;;;;;5098794;28;20568;-81
2021/09/07 05:09:12;;;;;;;3.83;3.53;;;;;;;;;;5075577;28;20208;-81
2021/09/07 05:11:40;;;;;;;4.30;3.90;;;;;;;;;;5077077;28;20199;-82
2021/09/07 05:14:08;;;;;;;3.88;3.45;;;;;;;;;;5084847;28;20278;-81
2021/09/07 05:16:35;;;;;;;4.15;3.53;;;;;;;;;;5074089;28;20763;-82
2021/09/07 05:19:03;;;;;;;3.35;3.05;;;;;;;;;;5097487;28;20216;-81
2021/09/07 05:21:30;;;;;;;4.82;3.67;;;;;;;;;;5086735;28;20189;-82
2021/09/07 05:23:58;;;;;;;5.10;3.72;;;;;;;;;;5081043;28;20277;-81
2021/09/07 05:26:27;;;;;;;5.75;5.25;;;;;;;;;;5077052;28;20213;-82
2021/09/07 05:28:54;;;;;;;4.75;4.32;;;;;;;;;;5088240;28;20664;-82
2021/09/07 05:31:22;;;;;;;5.88;5.22;;;;;;;;;;5107541;28;20628;-81
2021/09/07 05:33:49;;;;;;;5.82;4.70;;;;;;;;;;5112760;28;20256;-82
2021/09/07 05:36:17;;;;;;;5.60;4.43;;;;;;;;;;5082770;28;20270;-86
2021/09/07 05:38:44;;;;;;;6.10;5.35;;;;;;;;;;5073266;28;20227;-82
2021/09/07 05:41:12;;;;;;;4.93;4.03;;;;;;;;;;5072957;28;20185;-82
2021/09/07 05:43:40;;;;;;;4.05;3.65;;;;;;;;;;5093609;28;20200;-82
2021/09/07 05:46:08;;;;;;;3.88;3.35;;;;;;;;;;5092675;28;20685;-82
2021/09/07 05:48:37;;;;;;;3.33;3.03;;;;;;;;;;5092557;28;20752;-82
2021/09/07 05:51:05;;;;;;;4.03;2.45;;;;;;;;;;5079101;28;20188;-82
2021/09/07 05:53:33;;;;;;;2.63;2.42;;;;;;;;;;5089759;28;20227;-82
2021/09/07 05:56:00;;;;;;;3.60;3.30;;;;;;;;;;5071526;28;20239;-82
2021/09/07 05:58:27;;;;;;;3.83;3.50;;;;;;;;;;5087581;28;20220;-82
2021/09/07 06:00:56;;;;;;;4.45;3.03;;;;;;;;;;5091694;28;20635;-83
2021/09/07 06:03:24;;;;;;;3.53;3.22;;;;;;;;;;5091686;28;20204;-82
2021/09/07 06:05:51;;;;;;;3.72;3.38;;;;;;;;;;5092488;28;20227;-82
2021/09/07 06:08:19;;;;;;;3.30;3.00;;;;;;;;;;5093202;28;20196;-82
2021/09/07 06:10:46;;;;;;;2.90;2.67;;;;;;;;;;5093277;28;20283;-83
2021/09/07 06:13:14;;;;;;;3.13;2.53;;;;;;;;;;5093718;28;20228;-82
2021/09/07 06:15:42;;;;;;;2.40;2.20;;;;;;;;;;5094501;28;20568;-82
2021/09/07 06:18:11;;;;;;;3.45;2.70;;;;;;;;;;5093049;28;20196;-82
2021/09/07 06:20:39;;;;;;;3.63;3.28;;;;;;;;;;5093913;28;20204;-82
2021/09/07 06:23:07;;;;;;;5.10;4.20;;;;;;;;;;5094793;28;20185;-82
2021/09/07 06:25:34;;;;;;;4.72;4.15;;;;;;;;;;5081381;28;20633;-82
2021/09/07 06:28:02;;;;;;;3.25;3.03;;;;;;;;;;5073906;28;20181;-82
2021/09/07 06:30:29;;;;;;;3.92;3.63;;;;;;;;;;5073648;28;20181;-83
2021/09/07 06:32:56;;;;;;;3.63;3.33;;;;;;;;;;5073665;28;20181;-83
2021/09/07 06:35:25;;;;;;;5.60;5.10;;;;;;;;;;5076473;28;20201;-82
2021/09/07 06:37:54;;;;;;;6.35;5.75;;;;;;;;;;5075761;28;20219;-82
2021/09/07 06:40:21;;;;;;;4.22;3.88;;;;;;;;;;5075113;28;20217;-83
2021/09/07 06:42:49;;;;;;;4.30;3.78;;;;;;;;;;5075639;28;20896;-83
2021/09/07 06:45:17;;;;;;;4.00;3.70;;;;;;;;;;5075691;28;20212;-82
2021/09/07 06:47:44;;;;;;;5.65;4.45;;;;;;;;;;5075477;28;20220;-82
2021/09/07 06:50:12;;;;;;;6.05;5.00;;;;;;;;;;5089481;28;20200;-82
2021/09/07 06:52:41;;;;;;;5.00;4.50;;;;;;;;;;5094867;28;20188;-83
2021/09/07 06:55:10;;;;;;;7.72;6.43;;;;;;;;;;5090889;28;20212;-83
2021/09/07 06:57:38;;;;;;;8.77;6.85;;;;;;;;;;5077543;28;20282;-82
2021/09/07 07:00:07;;;;;;;6.47;5.63;;;;;;;;;;5075073;28;20211;-83
2021/09/07 07:02:39;;;;;;;6.50;5.85;;;;;;;;;;5074761;28;20181;-83
2021/09/07 07:05:08;;;;;;;5.80;5.30;;;;;;;;;;5084052;28;20271;-83
2021/09/07 07:07:44;;;;;;;5.55;5.05;;;;;;;;;;5081135;28;20213;-83
2021/09/07 07:10:12;;;;;;;5.10;4.70;;;;;;;;;;5095435;28;20191;-82
2021/09/07 07:12:40;;;;;;;5.28;4.70;;;;;;;;;;5094103;28;20224;-84
2021/09/07 07:15:09;;;;;;;6.30;5.70;;;;;;;;;;5103021;28;20184;-83
2021/09/07 07:17:37;;;;;;;5.50;5.00;;;;;;;;;;5116534;28;20687;-83
2021/09/07 07:20:05;;;;;;;7.32;5.15;;;;;;;;;;5115139;27;20226;-83
2021/09/07 07:22:32;;;;;;;6.50;5.47;;;;;;;;;;5114043;28;20206;-83
2021/09/07 07:25:01;;;;;;;5.93;5.25;;;;;;;;;;5074507;28;20181;-83
2021/09/07 07:27:29;;;;;;;6.05;5.45;;;;;;;;;;5073933;28;20703;-83
2021/09/07 07:29:56;;;;;;;6.20;5.60;;;;;;;;;;5101922;28;20194;-83
2021/09/07 07:32:24;;;;;;;7.90;6.70;;;;;;;;;;5116229;28;20200;-82
2021/09/07 07:34:51;;;;;;;6.55;5.90;;;;;;;;;;5116120;28;20233;-82
2021/09/07 07:37:19;;;;;;;7.55;6.85;;;;;;;;;;5115059;28;20220;-83
2021/09/07 07:39:46;;;;;;;8.00;7.20;;;;;;;;;;5115745;28;20662;-83
2021/09/07 07:42:15;;;;;;;9.40;7.93;;;;;;;;;;5116498;28;20203;-83
2021/09/07 07:44:45;;;;;;;8.75;7.75;;;;;;;;;;5078366;28;20193;-83
2021/09/07 07:47:12;;;;;;;9.40;8.45;;;;;;;;;;5075630;28;20224;-83
2021/09/07 07:49:40;;;;;;;10.20;7.90;;;;;;;;;;5074449;28;20555;-84
2021/09/07 07:52:08;;;;;;;6.90;6.22;;;;;;;;;;5073918;28;20177;-82
2021/09/07 07:54:35;;;;;;;8.18;7.13;;;;;;;;;;5076926;28;20276;-83
2021/09/07 07:57:06;;;;;;;7.53;6.75;;;;;;;;;;5094746;28;20244;-83
2021/09/07 07:59:34;;;;;;;7.32;6.60;;;;;;;;;;5094142;28;20197;-83
2021/09/07 08:02:02;;;;;;;5.93;5.10;;;;;;;;;;5093904;28;20216;-83
2021/09/07 08:04:29;;;;;;;6.57;5.97;;;;;;;;;;5095626;28;20657;-83
2021/09/07 08:06:57;;;;;;;7.05;6.35;;;;;;;;;;5095350;28;20253;-83
2021/09/07 08:09:25;;;;;;;8.70;6.88;;;;;;;;;;5095149;28;20204;-84
2021/09/07 08:11:52;;;;;;;8.90;7.38;;;;;;;;;;5089982;28;20200;-82
2021/09/07 08:14:20;;;;;;;6.57;5.63;;;;;;;;;;5073235;28;20320;-82
2021/09/07 08:16:49;;;;;;;8.18;6.97;;;;;;;;;;5074092;28;20610;-82
2021/09/07 08:19:16;;;;;;;6.82;5.45;;;;;;;;;;5073386;28;20648;-82
2021/09/07 08:21:44;;;;;;;8.48;7.70;;;;;;;;;;5074241;28;20201;-83
2021/09/07 08:24:11;;;;;;;6.20;5.60;;;;;;;;;;5073489;28;20277;-83
2021/09/07 08:26:39;;;;;;;5.43;4.93;;;;;;;;;;5072878;28;20231;-82
2021/09/07 08:29:06;;;;;;;4.88;4.00;;;;;;;;;;5072899;28;20552;-83
2021/09/07 08:31:34;;;;;;;4.57;4.18;;;;;;;;;;5073092;28;20200;-81
2021/09/07 08:34:03;;;;;;;4.72;4.32;;;;;;;;;;5072685;28;20629;-84
2021/09/07 08:36:30;;;;;;;6.00;5.38;;;;;;;;;;5073098;28;20221;-83
2021/09/07 08:38:58;;;;;;;5.53;4.65;;;;;;;;;;5073067;28;20613;-83
2021/09/07 08:41:25;;;;;;;5.40;4.88;;;;;;;;;;5072021;28;20221;-83
2021/09/07 08:43:54;;;;;;;4.68;4.18;;;;;;;;;;5083698;28;20192;-83
2021/09/07 08:50:06;;;;;;;5.32;4.82;;;;;;;;;;5085319;28;20188;-84
2021/09/07 08:52:33;;;;;;;4.38;3.97;;;;;;;;;;5093748;28;20188;-83
2021/09/07 08:55:00;;;;;;;3.92;3.53;;;;;;;;;;5081117;28;20200;-83
2021/09/07 08:57:30;;;;;;;3.80;3.50;;;;;;;;;;5072398;28;20236;-85
2021/09/07 09:00:00;;;;;;;4.72;4.20;;;;;;;;;;5073070;28;20209;-83
2021/09/07 09:02:28;;;;;;;4.90;4.10;;;;;;;;;;5090200;28;20188;-84
2021/09/07 09:04:57;;;;;;;5.20;4.70;;;;;;;;;;5084631;28;20272;-84
2021/09/07 09:07:29;;;;;;;8.35;5.88;;;;;;;;;;5075159;28;20274;-84
2021/09/07 09:09:58;;;;;;;4.75;4.35;;;;;;;;;;5081393;28;20192;-84
2021/09/07 09:12:31;;;;;;;4.45;3.60;;;;;;;;;;5072874;28;20228;-83
2021/09/07 09:14:59;;;;;;;4.45;4.05;;;;;;;;;;5072536;28;20677;-83
2021/09/07 09:17:31;;;;;;;3.95;3.55;;;;;;;;;;5072282;28;20290;-83
2021/09/07 09:20:02;;;;;;;5.95;5.35;;;;;;;;;;5073896;28;20186;-84
2021/09/07 09:22:46;;;;;;;6.03;5.43;;;;;;;;;;5072915;28;20215;-83
2021/09/07 09:25:40;;;;;;;3.53;3.22;;;;;;;;;;5072589;28;20224;-83
2021/09/07 09:28:25;;;;;;;4.10;3.70;;;;;;;;;;5073171;28;20200;-83
2021/09/07 09:30:55;;;;;;;3.53;3.22;;;;;;;;;;5071871;28;20201;-85
2021/09/07 09:33:25;;;;;;;5.35;3.60;;;;;;;;;;5072782;28;20201;-85
2021/09/07 09:35:57;;;;;;;4.35;3.95;;;;;;;;;;5072751;28;20221;-85
2021/09/07 09:38:28;;;;;;;3.22;2.92;;;;;;;;;;5072192;28;20227;-86
2021/09/07 09:40:59;;;;;;;5.15;4.70;;;;;;;;;;5072090;28;20235;-85
2021/09/07 09:43:43;;;;;;;6.25;5.65;;;;;;;;;;5072364;28;20628;-85
2021/09/07 09:46:34;;;;;;;4.03;3.72;;;;;;;;;;5072761;28;20220;-85
2021/09/07 09:49:14;;;;;;;3.35;3.08;;;;;;;;;;5061584;28;20204;-86
2021/09/07 09:51:43;;;;;;;2.58;2.38;;;;;;;;;;5072660;28;20177;-84
2021/09/07 09:54:13;;;;;;;3.78;3.38;;;;;;;;;;5072713;28;20276;-85
2021/09/07 09:56:41;;;;;;;2.80;2.60;;;;;;;;;;5072615;28;20308;-84
2021/09/07 09:59:08;;;;;;;2.92;2.55;;;;;;;;;;5072357;28;20189;-84
2021/09/07 10:01:37;;;;;;;2.70;2.50;;;;;;;;;;5072226;28;20241;-85
2021/09/07 10:04:05;;;;;;;2.90;2.65;;;;;;;;;;5071869;28;20261;-84
2021/09/07 10:06:33;;;;;;;2.22;2.10;;;;;;;;;;5071788;28;20263;-85
2021/09/07 10:09:03;;;;;;;2.42;2.22;;;;;;;;;;5075517;28;20181;-85
2021/09/07 10:11:32;;;;;;;2.75;2.55;;;;;;;;;;5075837;28;20201;-85
2021/09/07 10:14:02;;;;;;;3.40;3.10;;;;;;;;;;5075468;28;20232;-86
2021/09/07 10:16:36;;;;;;;2.40;2.20;;;;;;;;;;5075390;28;20236;-86
2021/09/07 10:19:10;;;;;;;2.47;2.28;;;;;;;;;;5075897;28;20191;-86
2021/09/07 10:24:57;;;;;;;2.65;1.88;;;;;;;;;;5075789;28;20193;-85
2021/09/07 10:28:05;;;;;;;2.13;2.03;;;;;;;;;;5075671;28;20291;-85
2021/09/07 10:30:58;;;;;;;1.80;1.70;;;;;;;;;;5076474;28;20663;-86
2021/09/07 10:33:40;;;;;;;1.85;1.75;;;;;;;;;;5075853;28;20181;-85
2021/09/07 10:36:19;;;;;;;1.85;1.75;;;;;;;;;;5075203;28;20213;-84
2021/09/07 10:38:49;;;;;;;2.17;1.98;;;;;;;;;;5075539;28;20185;-84
2021/09/07 10:41:47;;;;;;;2.05;1.85;;;;;;;;;;5075408;28;20686;-84
2021/09/07 10:44:31;;;;;;;1.60;1.50;;;;;;;;;;5075768;28;20366;-84
2021/09/07 10:47:40;;;;;;;2.05;1.95;;;;;;;;;;5075529;28;20224;-84
2021/09/07 10:50:08;;;;;;;2.80;2.60;;;;;;;;;;5074527;28;20197;-85
2021/09/07 10:52:37;;;;;;;2.97;2.78;;;;;;;;;;5075921;28;20651;-84
2021/09/07 10:55:20;;;;;;;3.10;2.70;;;;;;;;;;5078025;28;20581;-85
2021/09/07 10:57:59;;;;;;;3.17;2.90;;;;;;;;;;5078019;28;20251;-84
2021/09/07 11:00:43;;;;;;;2.55;2.35;;;;;;;;;;5078247;28;20276;-84
2021/09/07 11:03:12;;;;;;;2.33;2.05;;;;;;;;;;5077360;28;20221;-84
2021/09/07 11:05:45;;;;;;;2.92;2.67;;;;;;;;;;5077976;28;20276;-85
2021/09/07 11:08:38;;;;;;;2.92;2.70;;;;;;;;;;5078039;28;20197;-85
2021/09/07 11:11:26;;;;;;;2.92;2.65;;;;;;;;;;5073475;28;20209;-84
2021/09/07 11:14:05;;;;;;;2.83;2.55;;;;;;;;;;5077168;28;20268;-86
2021/09/07 11:16:34;;;;;;;3.25;2.95;;;;;;;;;;5077379;28;20651;-85
2021/09/07 11:19:02;;;;;;;5.57;2.90;;;;;;;;;;5076343;28;20193;-85
2021/09/07 11:21:30;;;;;;;3.70;3.40;;;;;;;;;;5077729;28;20197;-85
2021/09/07 11:24:00;;;;;;;2.63;2.42;;;;;;;;;;5077294;28;20189;-83
2021/09/07 11:26:30;;;;;;;2.47;2.28;;;;;;;;;;5077486;28;20225;-85
2021/09/07 11:28:58;;;;;;;3.63;3.17;;;;;;;;;;5077447;28;20197;-84
2021/09/07 11:31:25;;;;;;;3.10;2.85;;;;;;;;;;5076855;28;20205;-86
2021/09/07 11:33:54;;;;;;;3.40;3.03;;;;;;;;;;5076963;28;20221;-86
2021/09/07 11:36:22;;;;;;;3.67;3.38;;;;;;;;;;5077685;28;20228;-85
2021/09/07 11:38:50;;;;;;;3.95;3.65;;;;;;;;;;5076624;28;20201;-84
2021/09/07 11:41:19;;;;;;;3.50;3.20;;;;;;;;;;5077294;28;20219;-85
2021/09/07 11:43:53;;;;;;;2.80;2.60;;;;;;;;;;5077352;28;20272;-85
2021/09/07 11:46:22;;;;;;;3.47;3.17;;;;;;;;;;5077099;28;20776;-86
2021/09/07 11:48:55;;;;;;;3.90;3.60;;;;;;;;;;5077688;28;20205;-84
2021/09/07 11:51:28;;;;;;;5.35;4.88;;;;;;;;;;5077260;28;20197;-85
2021/09/07 11:54:00;;;;;;;4.75;4.35;;;;;;;;;;5076462;28;20181;-84
2021/09/07 11:56:30;;;;;;;3.92;3.63;;;;;;;;;;5076839;28;20706;-84
2021/09/07 11:59:11;;;;;;;3.40;3.20;;;;;;;;;;5077242;28;20234;-84
2021/09/07 12:01:40;;;;;;;4.75;3.92;;;;;;;;;;5077366;28;20291;-84
2021/09/07 12:04:13;;;;;;;3.80;3.45;;;;;;;;;;5077141;28;20200;-85
2021/09/07 12:06:45;;;;;;;4.35;3.95;;;;;;;;;;5077852;28;20228;-84
2021/09/07 12:09:19;;;;;;;5.30;4.80;;;;;;;;;;5077162;28;20204;-84
2021/09/07 12:11:51;;;;;;;4.03;3.72;;;;;;;;;;5077739;28;20188;-84
2021/09/07 12:14:21;;;;;;;4.43;4.03;;;;;;;;;;5077390;28;20282;-84
2021/09/07 12:16:58;;;;;;;4.00;3.65;;;;;;;;;;5077119;28;20312;-84
2021/09/07 12:19:35;;;;;;;3.22;2.95;;;;;;;;;;5077247;28;20547;-84
2021/09/07 12:22:15;;;;;;;3.58;3.28;;;;;;;;;;5076538;28;20670;-84
2021/09/07 12:24:58;;;;;;;3.47;3.17;;;;;;;;;;5076053;28;20209;-84
2021/09/07 12:27:30;;;;;;;3.63;3.33;;;;;;;;;;5075899;28;20221;-84
2021/09/07 12:30:30;;;;;;;3.22;2.92;;;;;;;;;;5076502;28;20189;-84
2021/09/07 12:33:00;;;;;;;2.40;2.20;;;;;;;;;;5051861;28;20208;-84
2021/09/07 12:35:36;;;;;;;3.08;2.88;;;;;;;;;;5075062;28;20217;-85
2021/09/07 12:38:08;;;;;;;4.32;2.92;;;;;;;;;;5075039;28;20217;-84
2021/09/07 12:40:37;;;;;;;3.53;3.22;;;;;;;;;;5075539;28;20185;-84
2021/09/07 12:43:09;;;;;;;3.63;3.33;;;;;;;;;;5074803;28;20261;-84
2021/09/07 12:45:37;;;;;;;3.45;3.15;;;;;;;;;;5075597;28;20276;-84
2021/09/07 12:48:05;;;;;;;3.50;3.20;;;;;;;;;;5074579;28;20201;-84
2021/09/07 12:50:34;;;;;;;3.40;3.10;;;;;;;;;;5075130;28;20745;-84
2021/09/07 12:53:04;;;;;;;3.75;3.08;;;;;;;;;;5075000;28;20185;-84
2021/09/07 12:55:33;;;;;;;3.47;3.22;;;;;;;;;;5074904;28;20189;-84
2021/09/07 12:58:00;;;;;;;3.30;2.97;;;;;;;;;;5075455;28;20195;-84
2021/09/07 13:00:28;;;;;;;3.25;2.95;;;;;;;;;;5075598;28;20343;-84
2021/09/07 13:02:56;;;;;;;3.00;2.75;;;;;;;;;;5074273;28;20703;-85
2021/09/07 13:05:24;;;;;;;3.72;3.42;;;;;;;;;;5074005;28;20181;-87
2021/09/07 13:07:52;;;;;;;3.60;3.30;;;;;;;;;;5075069;28;20654;-85
2021/09/07 13:10:20;;;;;;;3.63;3.30;;;;;;;;;;5075842;28;20200;-84
2021/09/07 13:12:47;;;;;;;4.10;3.70;;;;;;;;;;5075078;28;20221;-84
2021/09/07 13:15:15;;;;;;;2.83;2.63;;;;;;;;;;5075585;28;20571;-84
2021/09/07 13:17:42;;;;;;;2.72;2.53;;;;;;;;;;5075704;28;20221;-84
2021/09/07 13:20:12;;;;;;;2.95;2.75;;;;;;;;;;5075136;28;20205;-84
2021/09/07 13:22:39;;;;;;;3.17;2.88;;;;;;;;;;5075138;28;20658;-84
2021/09/07 13:25:09;;;;;;;3.67;3.38;;;;;;;;;;5078850;28;20196;-84
2021/09/07 13:27:37;;;;;;;3.42;3.13;;;;;;;;;;5095476;28;20289;-84
2021/09/07 13:30:06;;;;;;;4.05;3.65;;;;;;;;;;5095158;28;20207;-84
2021/09/07 13:32:34;;;;;;;3.25;3.05;;;;;;;;;;5095163;28;20253;-84
2021/09/07 13:35:01;;;;;;;5.13;4.72;;;;;;;;;;5094548;28;20196;-84
2021/09/07 13:37:29;;;;;;;4.25;3.85;;;;;;;;;;5094651;28;20223;-84
2021/09/07 13:39:57;;;;;;;2.85;2.65;;;;;;;;;;5095391;28;20196;-84
2021/09/07 13:42:26;;;;;;;3.40;3.10;;;;;;;;;;5096196;28;20180;-84
2021/09/07 13:44:53;;;;;;;4.30;4.00;;;;;;;;;;5098949;28;20196;-84
2021/09/07 13:47:22;;;;;;;3.85;3.55;;;;;;;;;;5083647;22;20237;-87
2021/09/07 13:49:49;;;;;;;4.25;3.95;;;;;;;;;;5038504;28;20209;-87
2021/09/07 13:52:16;;;;;;;3.63;3.33;;;;;;;;;;5041072;28;20212;-86
2021/09/07 13:54:44;;;;;;;3.45;3.15;;;;;;;;;;5038138;28;20198;-87
2021/09/07 13:57:13;;;;;;;4.40;4.00;;;;;;;;;;5021208;28;20233;-86
2021/09/07 13:59:42;;;;;;;3.50;3.20;;;;;;;;;;5015285;28;20230;-87
2021/09/07 14:02:10;;;;;;;3.90;3.60;;;;;;;;;;5015802;28;20186;-86
2021/09/07 14:04:37;;;;;;;2.78;2.58;;;;;;;;;;5016392;28;20210;-87
2021/09/07 14:07:05;;;;;;;2.92;2.72;;;;;;;;;;5015718;28;20239;-87
2021/09/07 14:09:32;;;;;;;3.20;3.00;;;;;;;;;;5014706;28;20210;-87
2021/09/07 14:12:00;;;;;;;3.92;3.63;;;;;;;;;;5015956;28;20191;-87
2021/09/07 14:14:28;;;;;;;3.58;3.28;;;;;;;;;;5016376;28;20206;-87
2021/09/07 14:16:58;;;;;;;3.00;2.80;;;;;;;;;;5015534;28;20309;-88
2021/09/07 14:19:26;;;;;;;3.10;2.90;;;;;;;;;;5015764;28;20188;-87
2021/09/07 14:21:54;;;;;;;3.67;3.30;;;;;;;;;;5015964;28;20286;-88
2021/09/07 14:24:22;;;;;;;2.90;2.70;;;;;;;;;;5016266;28;20227;-88
2021/09/07 14:26:52;;;;;;;3.10;2.90;;;;;;;;;;5015226;28;20307;-88
2021/09/07 14:29:20;;;;;;;2.78;2.58;;;;;;;;;;5016082;28;20194;-88
2021/09/07 14:31:49;;;;;;;4.03;3.70;;;;;;;;;;5015451;28;20214;-88
2021/09/07 14:34:19;;;;;;;3.47;3.17;;;;;;;;;;5016152;28;20282;-88
2021/09/07 14:36:47;;;;;;;3.13;2.92;;;;;;;;;;5015411;28;20234;-88
2021/09/07 14:39:16;;;;;;;3.08;2.80;;;;;;;;;;5015804;28;20626;-87
2021/09/07 14:41:49;;;;;;;2.75;2.55;;;;;;;;;;5015517;28;20668;-89
2021/09/07 14:44:16;;;;;;;2.80;2.60;;;;;;;;;;5015915;28;20211;-88
2021/09/07 14:46:44;;;;;;;3.90;3.45;;;;;;;;;;5015195;28;20235;-88
2021/09/07 14:49:12;;;;;;;3.40;3.10;;;;;;;;;;5015734;28;20681;-89
2021/09/07 14:51:42;;;;;;;3.97;3.65;;;;;;;;;;5015520;28;20568;-88
2021/09/07 14:54:16;;;;;;;3.60;3.30;;;;;;;;;;5014304;28;20180;-89
2021/09/07 14:56:46;;;;;;;3.83;3.53;;;;;;;;;;5015543;28;20692;-89
2021/09/07 14:59:15;;;;;;;3.45;3.15;;;;;;;;;;5015558;28;20633;-89
2021/09/07 15:01:43;;;;;;;3.58;3.35;;;;;;;;;;5014913;28;20207;-88
2021/09/07 15:04:11;;;;;;;2.70;2.50;;;;;;;;;;5015184;28;20204;-88